createdAt,value
2019-02-21T00:00:55.648Z,5.46
2019-02-21T00:01:54.763Z,5.47
2019-02-21T00:02:54.777Z,5.47
2019-02-21T00:03:54.766Z,5.46
2019-02-21T00:04:55.084Z,5.45
2019-02-21T00:05:54.807Z,5.47
2019-02-21T00:06:55.139Z,5.45
2019-02-21T00:07:54.726Z,5.43
2019-02-21T00:08:55.010Z,5.44
2019-02-21T00:09:56.041Z,5.44
2019-02-21T00:10:54.759Z,5.45
2019-02-21T00:11:54.800Z,5.45
2019-02-21T00:12:55.858Z,5.44
2019-02-21T00:13:54.738Z,5.45
2019-02-21T00:14:55.050Z,5.45
2019-02-21T00:15:55.174Z,5.43
2019-02-21T00:16:55.182Z,5.43
2019-02-21T00:17:54.842Z,5.42
2019-02-21T00:18:55.426Z,5.38
2019-02-21T00:19:54.727Z,5.44
2019-02-21T00:20:55.133Z,5.44
2019-02-21T00:21:55.000Z,5.43
2019-02-21T00:22:54.787Z,5.44
2019-02-21T00:23:55.154Z,5.44
2019-02-21T00:24:54.840Z,5.42
2019-02-21T00:25:56.029Z,5.41
2019-02-21T00:26:55.671Z,5.42
2019-02-21T00:27:55.058Z,5.41
2019-02-21T00:28:55.152Z,5.4
2019-02-21T00:29:55.053Z,5.41
2019-02-21T00:30:55.549Z,5.4
2019-02-21T00:31:55.433Z,5.39
2019-02-21T00:32:55.101Z,5.39
2019-02-21T00:33:54.808Z,5.38
2019-02-21T00:34:55.034Z,5.37
2019-02-21T00:35:55.096Z,5.38
2019-02-21T00:36:55.010Z,5.38
2019-02-21T00:37:54.757Z,5.37
2019-02-21T00:38:54.725Z,5.38
2019-02-21T00:39:54.856Z,5.39
2019-02-21T00:40:54.690Z,5.39
2019-02-21T00:41:55.520Z,5.35
2019-02-21T00:42:54.815Z,5.35
2019-02-21T00:43:54.759Z,5.37
2019-02-21T00:44:54.791Z,5.36
2019-02-21T00:45:54.916Z,5.35
2019-02-21T00:46:54.808Z,5.32
2019-02-21T00:47:55.091Z,5.32
2019-02-21T00:48:56.500Z,5.32
2019-02-21T00:49:54.792Z,5.32
2019-02-21T00:50:54.691Z,5.32
2019-02-21T00:51:55.401Z,5.33
2019-02-21T00:52:55.584Z,5.32
2019-02-21T00:53:54.650Z,5.31
2019-02-21T00:54:55.143Z,5.29
2019-02-21T00:55:54.714Z,5.35
2019-02-21T00:56:54.867Z,5.33
2019-02-21T00:57:55.160Z,5.31
2019-02-21T00:58:55.165Z,5.28
2019-02-21T00:59:55.067Z,5.29
2019-02-21T01:00:54.730Z,5.31
2019-02-21T01:01:54.970Z,5.31
2019-02-21T01:02:55.123Z,5.33
2019-02-21T01:03:55.053Z,5.34
2019-02-21T01:04:54.696Z,5.34
2019-02-21T01:05:54.677Z,5.32
2019-02-21T01:06:55.098Z,5.3
2019-02-21T01:07:55.142Z,5.31
2019-02-21T01:08:56.492Z,5.3
2019-02-21T01:09:54.923Z,5.32
2019-02-21T01:10:55.350Z,5.32
2019-02-21T01:11:54.637Z,5.31
2019-02-21T01:12:54.698Z,5.29
2019-02-21T01:13:54.763Z,5.3
2019-02-21T01:14:55.486Z,5.32
2019-02-21T01:15:54.479Z,5.33
2019-02-21T01:16:54.655Z,5.29
2019-02-21T01:17:54.814Z,5.3
2019-02-21T01:18:54.613Z,5.28
2019-02-21T01:19:54.741Z,5.27
2019-02-21T01:20:55.500Z,5.29
2019-02-21T01:21:55.018Z,5.3
2019-02-21T01:22:54.895Z,5.31
2019-02-21T01:23:54.642Z,5.29
2019-02-21T01:24:55.127Z,5.31
2019-02-21T01:25:54.813Z,5.31
2019-02-21T01:26:54.625Z,5.3
2019-02-21T01:27:55.136Z,5.29
2019-02-21T01:28:54.834Z,5.3
2019-02-21T01:29:54.595Z,5.29
2019-02-21T01:30:57.562Z,5.28
2019-02-21T01:31:55.292Z,5.29
2019-02-21T01:32:54.890Z,5.27
2019-02-21T01:33:54.703Z,5.27
2019-02-21T01:34:55.176Z,5.3
2019-02-21T01:35:54.692Z,5.3
2019-02-21T01:36:56.434Z,5.33
2019-02-21T01:37:55.106Z,5.29
2019-02-21T01:38:55.293Z,5.31
2019-02-21T01:39:54.692Z,5.31
2019-02-21T01:40:55.023Z,5.29
2019-02-21T01:41:54.711Z,5.32
2019-02-21T01:42:54.608Z,5.31
2019-02-21T01:43:54.949Z,5.35
2019-02-21T01:44:54.648Z,5.34
2019-02-21T01:45:54.912Z,5.36
2019-02-21T01:46:54.685Z,5.36
2019-02-21T01:47:54.938Z,5.36
2019-02-21T01:48:54.984Z,5.36
2019-02-21T01:49:56.443Z,5.35
2019-02-21T01:50:54.561Z,5.38
2019-02-21T01:51:56.418Z,5.35
2019-02-21T01:52:54.674Z,5.36
2019-02-21T01:53:54.631Z,5.36
2019-02-21T01:54:54.633Z,5.36
2019-02-21T01:55:54.917Z,5.36
2019-02-21T01:56:56.430Z,5.35
2019-02-21T01:57:54.587Z,5.37
2019-02-21T01:58:55.554Z,5.36
2019-02-21T01:59:54.541Z,5.37
2019-02-21T02:00:54.704Z,5.39
2019-02-21T02:01:55.453Z,5.36
2019-02-21T02:02:55.066Z,5.38
2019-02-21T02:03:56.397Z,5.38
2019-02-21T02:04:55.685Z,5.38
2019-02-21T02:05:54.820Z,5.39
2019-02-21T02:06:54.797Z,5.36
2019-02-21T02:07:54.887Z,5.36
2019-02-21T02:08:54.716Z,5.39
2019-02-21T02:09:56.405Z,5.38
2019-02-21T02:10:54.922Z,5.37
2019-02-21T02:11:54.375Z,5.37
2019-02-21T02:12:54.719Z,5.35
2019-02-21T02:13:54.817Z,5.38
2019-02-21T02:14:56.453Z,5.36
2019-02-21T02:15:54.741Z,5.34
2019-02-21T02:16:54.868Z,5.36
2019-02-21T02:17:54.565Z,5.35
2019-02-21T02:18:54.643Z,5.38
2019-02-21T02:19:54.757Z,5.38
2019-02-21T02:20:54.602Z,5.37
2019-02-21T02:21:55.507Z,5.37
2019-02-21T02:22:55.410Z,5.38
2019-02-21T02:23:54.727Z,5.39
2019-02-21T02:24:55.219Z,5.39
2019-02-21T02:25:54.752Z,5.37
2019-02-21T02:26:54.926Z,5.38
2019-02-21T02:27:54.874Z,5.37
2019-02-21T02:28:56.374Z,5.38
2019-02-21T02:29:54.590Z,5.37
2019-02-21T02:30:54.618Z,5.37
2019-02-21T02:31:54.920Z,5.38
2019-02-21T02:32:54.683Z,5.39
2019-02-21T02:33:54.540Z,5.39
2019-02-21T02:34:54.619Z,5.39
2019-02-21T02:35:54.677Z,5.4
2019-02-21T02:36:55.183Z,5.41
2019-02-21T02:37:56.046Z,5.39
2019-02-21T02:38:54.551Z,5.41
2019-02-21T02:39:54.557Z,5.41
2019-02-21T02:40:55.922Z,5.41
2019-02-21T02:41:54.596Z,5.4
2019-02-21T02:42:54.627Z,5.4
2019-02-21T02:43:55.948Z,5.4
2019-02-21T02:44:55.518Z,5.41
2019-02-21T02:45:54.830Z,5.39
2019-02-21T02:46:54.838Z,5.41
2019-02-21T02:47:55.100Z,5.39
2019-02-21T02:48:55.333Z,5.4
2019-02-21T02:49:54.500Z,5.38
2019-02-21T02:50:54.580Z,5.4
2019-02-21T02:51:54.631Z,5.39
2019-02-21T02:52:54.545Z,5.39
2019-02-21T02:53:54.585Z,5.4
2019-02-21T02:54:54.558Z,5.38
2019-02-21T02:55:54.795Z,5.38
2019-02-21T02:56:55.092Z,5.38
2019-02-21T02:57:54.742Z,5.37
2019-02-21T02:58:54.799Z,5.36
2019-02-21T02:59:55.089Z,5.38
2019-02-21T03:00:55.720Z,5.38
2019-02-21T03:01:54.870Z,5.38
2019-02-21T03:02:54.698Z,5.37
2019-02-21T03:03:54.934Z,5.37
2019-02-21T03:04:54.537Z,5.38
2019-02-21T03:05:55.257Z,5.39
2019-02-21T03:06:55.484Z,5.38
2019-02-21T03:07:54.743Z,5.38
2019-02-21T03:08:54.528Z,5.37
2019-02-21T03:09:54.896Z,5.37
2019-02-21T03:10:54.512Z,5.37
2019-02-21T03:11:55.723Z,5.37
2019-02-21T03:12:55.634Z,5.38
2019-02-21T03:13:54.931Z,5.38
2019-02-21T03:14:54.481Z,5.36
2019-02-21T03:15:55.422Z,5.35
2019-02-21T03:16:54.461Z,5.36
2019-02-21T03:17:56.786Z,5.36
2019-02-21T03:18:56.287Z,5.37
2019-02-21T03:19:54.587Z,5.35
2019-02-21T03:20:54.488Z,5.35
2019-02-21T03:21:54.467Z,5.34
2019-02-21T03:22:55.346Z,5.34
2019-02-21T03:23:55.456Z,5.35
2019-02-21T03:24:54.444Z,5.35
2019-02-21T03:25:55.010Z,5.34
2019-02-21T03:26:54.717Z,5.36
2019-02-21T03:27:55.022Z,5.37
2019-02-21T03:28:54.523Z,5.34
2019-02-21T03:29:54.636Z,5.37
2019-02-21T03:30:54.598Z,5.37
2019-02-21T03:31:56.852Z,5.35
2019-02-21T03:32:54.707Z,5.36
2019-02-21T03:33:54.546Z,5.35
2019-02-21T03:34:54.721Z,5.33
2019-02-21T03:35:54.864Z,5.37
2019-02-21T03:36:54.697Z,5.34
2019-02-21T03:37:54.471Z,5.33
2019-02-21T03:38:55.461Z,5.32
2019-02-21T03:39:54.439Z,5.33
2019-02-21T03:40:54.494Z,5.34
2019-02-21T03:41:55.306Z,5.34
2019-02-21T03:42:54.840Z,5.36
2019-02-21T03:43:54.772Z,5.35
2019-02-21T03:44:54.467Z,5.36
2019-02-21T03:45:55.134Z,5.36
2019-02-21T03:46:54.525Z,5.36
2019-02-21T03:47:54.681Z,5.36
2019-02-21T03:48:54.477Z,5.37
2019-02-21T03:49:55.376Z,5.38
2019-02-21T03:50:55.412Z,5.38
2019-02-21T03:51:54.484Z,5.38
2019-02-21T03:52:54.429Z,5.38
2019-02-21T03:53:54.912Z,5.37
2019-02-21T03:54:54.849Z,5.38
2019-02-21T03:55:54.451Z,5.38
2019-02-21T03:56:54.719Z,5.4
2019-02-21T03:57:54.743Z,5.4
2019-02-21T03:58:54.443Z,5.4
2019-02-21T03:59:54.646Z,5.41
2019-02-21T04:00:54.454Z,5.46
2019-02-21T04:02:06.049Z,5.43
2019-02-21T04:02:54.595Z,5.44
2019-02-21T04:03:54.523Z,5.44
2019-02-21T04:04:54.541Z,5.41
2019-02-21T04:05:54.749Z,5.42
2019-02-21T04:06:54.910Z,5.42
2019-02-21T04:07:54.444Z,5.43
2019-02-21T04:08:54.514Z,5.41
2019-02-21T04:09:54.481Z,5.41
2019-02-21T04:10:54.746Z,5.43
2019-02-21T04:11:55.109Z,5.44
2019-02-21T04:12:56.226Z,5.43
2019-02-21T04:13:54.208Z,5.42
2019-02-21T04:14:54.203Z,5.43
2019-02-21T04:15:54.210Z,5.44
2019-02-21T04:16:54.172Z,5.45
2019-02-21T04:17:55.044Z,5.43
2019-02-21T04:18:54.636Z,5.46
2019-02-21T04:19:54.423Z,5.46
2019-02-21T04:20:54.433Z,5.49
2019-02-21T04:21:54.420Z,5.45
2019-02-21T04:22:54.426Z,5.47
2019-02-21T04:23:54.499Z,5.48
2019-02-21T04:24:54.326Z,5.46
2019-02-21T04:25:54.428Z,5.45
2019-02-21T04:26:54.378Z,5.46
2019-02-21T04:27:54.377Z,5.45
2019-02-21T04:28:54.439Z,5.44
2019-02-21T04:29:54.435Z,5.45
2019-02-21T04:30:54.532Z,5.45
2019-02-21T04:31:54.665Z,5.46
2019-02-21T04:32:55.131Z,5.46
2019-02-21T04:33:55.391Z,5.46
2019-02-21T04:34:56.214Z,5.46
2019-02-21T04:35:54.780Z,5.44
2019-02-21T04:36:54.612Z,5.44
2019-02-21T04:37:54.573Z,5.48
2019-02-21T04:38:54.508Z,5.45
2019-02-21T04:39:54.366Z,5.46
2019-02-21T04:40:54.785Z,5.46
2019-02-21T04:41:54.451Z,5.46
2019-02-21T04:42:54.784Z,5.44
2019-02-21T04:43:54.437Z,5.45
2019-02-21T04:44:54.904Z,5.44
2019-02-21T04:45:54.622Z,5.44
2019-02-21T04:46:54.650Z,5.43
2019-02-21T04:47:55.154Z,5.42
2019-02-21T04:48:54.496Z,5.44
2019-02-21T04:49:54.638Z,5.45
2019-02-21T04:50:54.777Z,5.45
2019-02-21T04:51:54.422Z,5.46
2019-02-21T04:52:54.397Z,5.47
2019-02-21T04:53:54.344Z,5.46
2019-02-21T04:54:55.292Z,5.47
2019-02-21T04:55:54.353Z,5.47
2019-02-21T04:56:54.690Z,5.49
2019-02-21T04:57:54.844Z,5.47
2019-02-21T04:58:54.357Z,5.49
2019-02-21T04:59:54.715Z,5.49
2019-02-21T05:00:56.126Z,5.48
2019-02-21T05:01:54.110Z,5.52
2019-02-21T05:02:54.137Z,5.5
2019-02-21T05:03:54.127Z,5.51
2019-02-21T05:04:54.397Z,5.49
2019-02-21T05:05:54.389Z,5.47
2019-02-21T05:06:54.493Z,5.49
2019-02-21T05:07:55.204Z,5.48
2019-02-21T05:08:54.850Z,5.5
2019-02-21T05:09:58.943Z,5.48
2019-02-21T05:10:54.367Z,5.47
2019-02-21T05:11:54.334Z,5.47
2019-02-21T05:12:54.515Z,5.51
2019-02-21T05:13:55.830Z,5.54
2019-02-21T05:14:56.173Z,5.51
2019-02-21T05:15:54.377Z,5.51
2019-02-21T05:16:55.312Z,5.52
2019-02-21T05:17:54.912Z,5.53
2019-02-21T05:18:54.816Z,5.51
2019-02-21T05:19:54.541Z,5.52
2019-02-21T05:20:55.145Z,5.52
2019-02-21T05:21:54.289Z,5.51
2019-02-21T05:22:54.382Z,5.49
2019-02-21T05:23:54.321Z,5.52
2019-02-21T05:24:54.218Z,5.49
2019-02-21T05:25:54.466Z,5.5
2019-02-21T05:26:54.603Z,5.51
2019-02-21T05:27:54.529Z,5.51
2019-02-21T05:28:54.299Z,5.52
2019-02-21T05:29:54.713Z,5.51
2019-02-21T05:30:54.408Z,5.51
2019-02-21T05:31:54.321Z,5.54
2019-02-21T05:32:54.361Z,5.52
2019-02-21T05:33:54.636Z,5.5
2019-02-21T05:34:54.342Z,5.51
2019-02-21T05:35:54.443Z,5.55
2019-02-21T05:36:54.308Z,5.51
2019-02-21T05:37:54.318Z,5.52
2019-02-21T05:38:54.857Z,5.51
2019-02-21T05:39:55.328Z,5.52
2019-02-21T05:40:56.136Z,5.51
2019-02-21T05:41:54.385Z,5.52
2019-02-21T05:42:54.286Z,5.5
2019-02-21T05:43:54.469Z,5.53
2019-02-21T05:44:54.483Z,5.5
2019-02-21T05:45:54.306Z,5.53
2019-02-21T05:46:54.204Z,5.53
2019-02-21T05:47:54.627Z,5.52
2019-02-21T05:48:54.321Z,5.51
2019-02-21T05:49:54.280Z,5.54
2019-02-21T05:50:54.698Z,5.51
2019-02-21T05:51:54.341Z,5.52
2019-02-21T05:52:54.450Z,5.51
2019-02-21T05:53:54.451Z,5.53
2019-02-21T05:54:54.462Z,5.58
2019-02-21T05:55:54.638Z,5.57
2019-02-21T05:56:54.321Z,5.56
2019-02-21T05:57:54.245Z,5.6
2019-02-21T05:58:54.193Z,5.57
2019-02-21T05:59:54.413Z,5.57
2019-02-21T06:00:55.352Z,5.55
2019-02-21T06:01:54.510Z,5.53
2019-02-21T06:02:54.705Z,5.53
2019-02-21T06:03:54.320Z,5.54
2019-02-21T06:04:54.583Z,5.56
2019-02-21T06:05:54.292Z,5.56
2019-02-21T06:06:56.056Z,5.56
2019-02-21T06:07:54.643Z,5.55
2019-02-21T06:08:54.202Z,5.57
2019-02-21T06:09:54.281Z,5.59
2019-02-21T06:10:54.653Z,5.58
2019-02-21T06:11:54.353Z,5.55
2019-02-21T06:12:54.764Z,5.55
2019-02-21T06:13:54.602Z,5.57
2019-02-21T06:14:54.687Z,5.55
2019-02-21T06:15:54.968Z,5.59
2019-02-21T06:16:56.038Z,5.58
2019-02-21T06:17:54.241Z,5.57
2019-02-21T06:18:54.461Z,5.55
2019-02-21T06:19:54.841Z,5.59
2019-02-21T06:20:54.259Z,5.59
2019-02-21T06:21:55.059Z,5.58
2019-02-21T06:22:56.021Z,5.57
2019-02-21T06:23:55.030Z,5.55
2019-02-21T06:24:54.237Z,5.56
2019-02-21T06:25:59.637Z,5.57
2019-02-21T06:26:55.448Z,5.56
2019-02-21T06:27:54.301Z,5.57
2019-02-21T06:28:54.803Z,5.57
2019-02-21T06:29:54.546Z,5.58
2019-02-21T06:30:54.135Z,5.54
2019-02-21T06:31:54.726Z,5.53
2019-02-21T06:33:05.842Z,5.55
2019-02-21T06:33:54.163Z,5.57
2019-02-21T06:34:54.432Z,5.56
2019-02-21T06:35:54.519Z,5.55
2019-02-21T06:36:54.289Z,5.55
2019-02-21T06:37:54.411Z,5.55
2019-02-21T06:38:54.366Z,5.55
2019-02-21T06:39:54.765Z,5.59
2019-02-21T06:40:54.341Z,5.56
2019-02-21T06:42:00.779Z,5.58
2019-02-21T06:42:54.180Z,5.59
2019-02-21T06:43:57.210Z,5.57
2019-02-21T06:44:56.098Z,5.59
2019-02-21T06:45:58.454Z,5.57
2019-02-21T06:46:54.167Z,5.56
2019-02-21T06:47:54.390Z,5.57
2019-02-21T06:48:54.923Z,5.56
2019-02-21T06:49:54.163Z,5.57
2019-02-21T06:50:55.835Z,5.58
2019-02-21T06:51:54.534Z,5.6
2019-02-21T06:52:54.440Z,5.58
2019-02-21T06:53:54.879Z,5.58
2019-02-21T06:54:54.275Z,5.57
2019-02-21T06:55:56.014Z,5.6
2019-02-21T06:56:54.383Z,5.58
2019-02-21T06:57:54.138Z,5.58
2019-02-21T06:58:54.326Z,5.64
2019-02-21T06:59:54.227Z,5.64
2019-02-21T07:00:54.383Z,5.66
2019-02-21T07:01:54.324Z,5.66
2019-02-21T07:02:54.640Z,5.65
2019-02-21T07:03:54.292Z,5.62
2019-02-21T07:04:57.057Z,5.61
2019-02-21T07:05:54.986Z,5.63
2019-02-21T07:06:57.146Z,5.65
2019-02-21T07:07:54.231Z,5.62
2019-02-21T07:08:54.478Z,5.61
2019-02-21T07:09:54.437Z,5.6
2019-02-21T07:11:06.862Z,5.62
2019-02-21T07:11:55.935Z,5.6
2019-02-21T07:12:54.259Z,5.61
2019-02-21T07:13:55.616Z,5.64
2019-02-21T07:14:54.215Z,5.66
2019-02-21T07:15:54.189Z,5.65
2019-02-21T07:16:54.485Z,5.64
2019-02-21T07:17:55.102Z,5.66
2019-02-21T07:18:54.534Z,5.69
2019-02-21T07:19:54.285Z,5.67
2019-02-21T07:20:54.548Z,5.7
2019-02-21T07:21:54.326Z,5.68
2019-02-21T07:22:54.347Z,5.68
2019-02-21T07:23:54.834Z,5.67
2019-02-21T07:24:54.550Z,5.66
2019-02-21T07:25:54.309Z,5.67
2019-02-21T07:26:55.968Z,5.68
2019-02-21T07:27:54.862Z,5.71
2019-02-21T07:28:54.785Z,5.74
2019-02-21T07:29:55.942Z,5.72
2019-02-21T07:30:54.600Z,5.73
2019-02-21T07:31:54.276Z,5.71
2019-02-21T07:32:54.113Z,5.71
2019-02-21T07:33:54.415Z,5.75
2019-02-21T07:34:54.117Z,5.77
2019-02-21T07:35:54.512Z,5.79
2019-02-21T07:36:54.439Z,5.75
2019-02-21T07:37:54.184Z,5.82
2019-02-21T07:39:21.062Z,5.81
2019-02-21T07:39:54.105Z,5.78
2019-02-21T07:40:55.087Z,5.79
2019-02-21T07:41:56.054Z,5.81
2019-02-21T07:42:54.182Z,5.79
2019-02-21T07:43:54.361Z,5.84
2019-02-21T07:44:55.275Z,5.8
2019-02-21T07:45:54.484Z,5.84
2019-02-21T07:46:54.170Z,5.88
2019-02-21T07:47:55.900Z,5.86
2019-02-21T07:48:54.096Z,5.86
2019-02-21T07:49:54.615Z,5.84
2019-02-21T07:50:55.929Z,5.87
2019-02-21T07:51:55.123Z,5.87
2019-02-21T07:53:03.220Z,5.85
2019-02-21T07:53:54.100Z,5.85
2019-02-21T07:55:02.761Z,5.86
2019-02-21T07:55:56.161Z,5.89
2019-02-21T07:56:54.146Z,5.9
2019-02-21T07:57:54.934Z,5.9
2019-02-21T07:58:54.157Z,5.89
2019-02-21T07:59:54.780Z,5.91
2019-02-21T08:00:54.484Z,5.91
2019-02-21T08:01:54.349Z,5.93
2019-02-21T08:02:54.996Z,5.92
2019-02-21T08:03:54.109Z,5.95
2019-02-21T08:04:54.227Z,5.97
2019-02-21T08:05:54.130Z,5.94
2019-02-21T08:06:55.963Z,5.92
2019-02-21T08:07:54.559Z,5.98
2019-02-21T08:08:54.104Z,5.95
2019-02-21T08:09:54.034Z,5.99
2019-02-21T08:10:54.045Z,6.02
2019-02-21T08:11:54.086Z,6.05
2019-02-21T08:12:55.873Z,6.06
2019-02-21T08:13:55.555Z,6.04
2019-02-21T08:14:56.584Z,6.03
2019-02-21T08:15:54.198Z,6.04
2019-02-21T08:16:56.404Z,6.08
2019-02-21T08:17:55.008Z,6.08
2019-02-21T08:18:54.040Z,6.08
2019-02-21T08:19:54.057Z,6.09
2019-02-21T08:20:54.199Z,6.1
2019-02-21T08:21:55.904Z,6.11
2019-02-21T08:22:54.438Z,6.11
2019-02-21T08:23:54.116Z,6.1
2019-02-21T08:24:56.844Z,6.11
2019-02-21T08:25:54.049Z,6.19
2019-02-21T08:26:54.217Z,6.14
2019-02-21T08:27:54.038Z,6.14
2019-02-21T08:28:54.005Z,6.13
2019-02-21T08:29:54.465Z,6.16
2019-02-21T08:30:54.402Z,6.2
2019-02-21T08:31:54.477Z,6.16
2019-02-21T08:32:54.069Z,6.19
2019-02-21T08:33:59.232Z,6.17
2019-02-21T08:34:53.978Z,6.16
2019-02-21T08:35:58.152Z,6.18
2019-02-21T08:36:54.789Z,6.19
2019-02-21T08:37:55.113Z,6.23
2019-02-21T08:38:54.659Z,6.19
2019-02-21T08:39:54.082Z,6.22
2019-02-21T08:40:57.466Z,6.18
2019-02-21T08:41:55.525Z,6.21
2019-02-21T08:42:54.051Z,6.2
2019-02-21T08:43:54.233Z,6.16
2019-02-21T08:44:54.086Z,6.18
2019-02-21T08:45:54.365Z,6.18
2019-02-21T08:46:54.107Z,6.22
2019-02-21T08:47:54.285Z,6.18
2019-02-21T08:48:54.595Z,6.23
2019-02-21T08:49:54.490Z,6.21
2019-02-21T08:50:54.620Z,6.19
2019-02-21T08:51:55.918Z,6.21
2019-02-21T08:52:54.056Z,6.18
2019-02-21T08:53:53.957Z,6.19
2019-02-21T08:55:01.037Z,6.19
2019-02-21T08:55:56.288Z,6.19
2019-02-21T08:56:54.241Z,6.19
2019-02-21T08:57:54.353Z,6.17
2019-02-21T08:58:54.854Z,6.16
2019-02-21T08:59:54.051Z,6.17
2019-02-21T09:00:54.850Z,6.15
2019-02-21T09:01:54.174Z,6.24
2019-02-21T09:02:54.392Z,6.25
2019-02-21T09:03:54.394Z,6.26
2019-02-21T09:04:54.348Z,6.26
2019-02-21T09:05:54.137Z,6.28
2019-02-21T09:06:54.122Z,6.25
2019-02-21T09:07:54.025Z,6.23
2019-02-21T09:08:54.154Z,6.26
2019-02-21T09:09:54.330Z,6.27
2019-02-21T09:10:54.475Z,6.26
2019-02-21T09:11:55.841Z,6.27
2019-02-21T09:12:54.247Z,6.34
2019-02-21T09:13:56.127Z,6.32
2019-02-21T09:14:54.578Z,6.26
2019-02-21T09:15:56.299Z,6.31
2019-02-21T09:16:54.068Z,6.31
2019-02-21T09:17:55.802Z,6.29
2019-02-21T09:18:54.289Z,6.32
2019-02-21T09:19:53.819Z,6.34
2019-02-21T09:20:54.641Z,6.31
2019-02-21T09:21:54.926Z,6.34
2019-02-21T09:22:54.115Z,6.33
2019-02-21T09:23:57.107Z,6.34
2019-02-21T09:24:54.381Z,6.38
2019-02-21T09:25:54.234Z,6.39
2019-02-21T09:26:54.013Z,6.37
2019-02-21T09:27:54.041Z,6.43
2019-02-21T09:28:59.018Z,6.41
2019-02-21T09:29:54.245Z,6.42
2019-02-21T09:30:54.170Z,6.4
2019-02-21T09:31:54.263Z,6.44
2019-02-21T09:32:54.015Z,6.48
2019-02-21T09:33:54.305Z,6.5
2019-02-21T09:34:55.773Z,6.51
2019-02-21T09:35:58.618Z,6.52
2019-02-21T09:36:53.991Z,6.49
2019-02-21T09:37:54.201Z,6.46
2019-02-21T09:38:54.417Z,6.44
2019-02-21T09:39:54.108Z,6.44
2019-02-21T09:40:54.257Z,6.46
2019-02-21T09:41:53.954Z,6.48
2019-02-21T09:42:54.216Z,6.55
2019-02-21T09:43:55.736Z,6.57
2019-02-21T09:44:54.483Z,6.56
2019-02-21T09:45:54.258Z,6.53
2019-02-21T09:46:55.725Z,6.48
2019-02-21T09:47:54.789Z,6.55
2019-02-21T09:48:54.175Z,6.62
2019-02-21T09:49:56.712Z,6.59
2019-02-21T09:50:54.043Z,6.6
2019-02-21T09:51:54.164Z,6.58
2019-02-21T09:52:54.201Z,6.53
2019-02-21T09:53:54.729Z,6.49
2019-02-21T09:54:53.946Z,6.53
2019-02-21T09:55:53.998Z,6.49
2019-02-21T09:56:54.337Z,6.52
2019-02-21T09:57:54.130Z,6.57
2019-02-21T09:58:53.895Z,6.58
2019-02-21T09:59:54.157Z,6.57
2019-02-21T10:00:54.370Z,6.59
2019-02-21T10:01:54.099Z,6.6
2019-02-21T10:02:57.017Z,6.56
2019-02-21T10:03:54.271Z,6.57
2019-02-21T10:05:06.041Z,6.57
2019-02-21T10:05:54.345Z,6.58
2019-02-21T10:06:53.868Z,6.64
2019-02-21T10:07:55.699Z,6.68
2019-02-21T10:08:54.763Z,6.62
2019-02-21T10:09:54.327Z,6.64
2019-02-21T10:10:54.188Z,6.63
2019-02-21T10:11:53.852Z,6.62
2019-02-21T10:12:54.085Z,6.64
2019-02-21T10:13:54.132Z,6.68
2019-02-21T10:14:54.553Z,6.71
2019-02-21T10:15:53.854Z,6.74
2019-02-21T10:16:54.166Z,6.72
2019-02-21T10:17:55.692Z,6.68
2019-02-21T10:18:53.870Z,6.72
2019-02-21T10:19:54.296Z,6.69
2019-02-21T10:20:54.694Z,6.7
2019-02-21T10:21:53.676Z,6.67
2019-02-21T10:22:54.114Z,6.72
2019-02-21T10:23:57.086Z,6.72
2019-02-21T10:24:57.371Z,6.69
2019-02-21T10:25:54.212Z,6.77
2019-02-21T10:26:55.672Z,6.76
2019-02-21T10:27:54.114Z,6.76
2019-02-21T10:28:54.840Z,6.75
2019-02-21T10:29:54.855Z,6.74
2019-02-21T10:30:55.265Z,6.76
2019-02-21T10:31:55.671Z,6.72
2019-02-21T10:32:54.223Z,6.78
2019-02-21T10:33:54.074Z,6.79
2019-02-21T10:34:53.825Z,6.78
2019-02-21T10:35:55.647Z,6.77
2019-02-21T10:36:53.780Z,6.77
2019-02-21T10:37:53.853Z,6.76
2019-02-21T10:38:54.671Z,6.79
2019-02-21T10:39:53.859Z,6.83
2019-02-21T10:40:54.018Z,6.79
2019-02-21T10:41:54.742Z,6.8
2019-02-21T10:42:54.793Z,6.81
2019-02-21T10:43:54.149Z,6.81
2019-02-21T10:44:55.658Z,6.84
2019-02-21T10:45:53.956Z,6.75
2019-02-21T10:46:55.637Z,6.82
2019-02-21T10:47:53.763Z,6.88
2019-02-21T10:48:54.014Z,6.88
2019-02-21T10:49:54.534Z,6.85
2019-02-21T10:50:54.050Z,6.89
2019-02-21T10:51:54.400Z,6.87
2019-02-21T10:52:55.019Z,6.89
2019-02-21T10:53:53.902Z,6.84
2019-02-21T10:54:53.806Z,6.84
2019-02-21T10:55:54.839Z,6.88
2019-02-21T10:56:53.833Z,6.88
2019-02-21T10:57:53.782Z,6.83
2019-02-21T10:58:54.037Z,6.86
2019-02-21T10:59:54.440Z,6.85
2019-02-21T11:00:54.135Z,6.86
2019-02-21T11:01:54.261Z,6.83
2019-02-21T11:02:54.020Z,6.85
2019-02-21T11:03:53.774Z,6.84
2019-02-21T11:04:55.468Z,6.82
2019-02-21T11:05:54.058Z,6.84
2019-02-21T11:06:53.973Z,6.82
2019-02-21T11:07:53.913Z,6.82
2019-02-21T11:08:54.237Z,6.84
2019-02-21T11:09:54.240Z,6.85
2019-02-21T11:10:54.120Z,6.85
2019-02-21T11:11:54.115Z,6.84
2019-02-21T11:12:55.602Z,6.84
2019-02-21T11:13:54.961Z,6.87
2019-02-21T11:14:54.200Z,6.85
2019-02-21T11:15:54.142Z,6.87
2019-02-21T11:16:53.777Z,6.86
2019-02-21T11:17:54.140Z,6.85
2019-02-21T11:18:54.458Z,6.84
2019-02-21T11:19:53.958Z,6.87
2019-02-21T11:20:53.960Z,6.87
2019-02-21T11:21:54.182Z,6.87
2019-02-21T11:22:54.196Z,6.88
2019-02-21T11:23:54.170Z,6.89
2019-02-21T11:24:54.258Z,6.91
2019-02-21T11:25:53.922Z,6.9
2019-02-21T11:26:53.786Z,6.87
2019-02-21T11:27:54.317Z,6.88
2019-02-21T11:28:54.034Z,6.84
2019-02-21T11:29:53.787Z,6.88
2019-02-21T11:30:53.840Z,6.9
2019-02-21T11:31:53.748Z,6.91
2019-02-21T11:32:54.000Z,6.87
2019-02-21T11:33:54.365Z,6.87
2019-02-21T11:34:53.741Z,6.9
2019-02-21T11:35:54.309Z,6.95
2019-02-21T11:36:54.074Z,6.99
2019-02-21T11:37:53.739Z,7
2019-02-21T11:38:54.105Z,6.99
2019-02-21T11:39:54.112Z,6.99
2019-02-21T11:40:53.835Z,7.04
2019-02-21T11:41:53.723Z,7.06
2019-02-21T11:42:54.749Z,7.04
2019-02-21T11:43:53.929Z,7.07
2019-02-21T11:44:54.040Z,6.99
2019-02-21T11:45:57.705Z,7.01
2019-02-21T11:46:53.884Z,7
2019-02-21T11:47:54.058Z,7
2019-02-21T11:48:55.554Z,7.06
2019-02-21T11:49:53.532Z,7.14
2019-02-21T11:50:53.547Z,7.04
2019-02-21T11:51:53.553Z,7.03
2019-02-21T11:52:53.531Z,7.02
2019-02-21T11:53:54.005Z,6.95
2019-02-21T11:54:53.750Z,6.94
2019-02-21T11:55:54.114Z,6.94
2019-02-21T11:56:54.765Z,6.99
2019-02-21T11:57:53.781Z,7.04
2019-02-21T11:58:54.363Z,7.1
2019-02-21T11:59:54.574Z,7.03
2019-02-21T12:00:54.045Z,7.02
2019-02-21T12:01:53.774Z,7.02
2019-02-21T12:02:55.188Z,7.02
2019-02-21T12:03:54.054Z,7.01
2019-02-21T12:04:54.066Z,7.02
2019-02-21T12:05:54.075Z,7.02
2019-02-21T12:06:53.710Z,7
2019-02-21T12:07:53.680Z,6.97
2019-02-21T12:08:53.727Z,7.01
2019-02-21T12:09:53.806Z,7.04
2019-02-21T12:10:53.769Z,7.07
2019-02-21T12:11:54.163Z,7.05
2019-02-21T12:12:54.155Z,7.05
2019-02-21T12:13:53.697Z,7.07
2019-02-21T12:14:54.096Z,7.09
2019-02-21T12:15:53.828Z,7.07
2019-02-21T12:16:54.150Z,7.09
2019-02-21T12:17:53.739Z,7.06
2019-02-21T12:18:54.529Z,7.13
2019-02-21T12:19:53.799Z,7.09
2019-02-21T12:20:54.565Z,7.04
2019-02-21T12:21:59.752Z,7.06
2019-02-21T12:22:53.775Z,7.09
2019-02-21T12:23:54.082Z,7.18
2019-02-21T12:24:54.102Z,7.22
2019-02-21T12:25:53.733Z,7.15
2019-02-21T12:26:53.890Z,7.1
2019-02-21T12:27:53.655Z,7.07
2019-02-21T12:28:54.032Z,7.13
2019-02-21T12:29:53.838Z,7.08
2019-02-21T12:30:53.834Z,7.12
2019-02-21T12:31:53.821Z,7.14
2019-02-21T12:32:53.661Z,7.18
2019-02-21T12:33:54.911Z,7.18
2019-02-21T12:34:53.710Z,7.15
2019-02-21T12:35:54.186Z,7.17
2019-02-21T12:36:53.902Z,7.18
2019-02-21T12:37:53.695Z,7.25
2019-02-21T12:38:54.011Z,7.2
2019-02-21T12:39:55.497Z,7.25
2019-02-21T12:40:53.459Z,7.24
2019-02-21T12:41:53.476Z,7.26
2019-02-21T12:42:53.707Z,7.21
2019-02-21T12:43:55.501Z,7.24
2019-02-21T12:44:53.639Z,7.2
2019-02-21T12:45:54.535Z,7.16
2019-02-21T12:46:53.809Z,7.14
2019-02-21T12:47:54.531Z,7.17
2019-02-21T12:48:55.458Z,7.19
2019-02-21T12:49:55.765Z,7.17
2019-02-21T12:50:53.785Z,7.22
2019-02-21T12:51:53.701Z,7.13
2019-02-21T12:52:54.097Z,7.13
2019-02-21T12:53:53.818Z,7.17
2019-02-21T12:54:55.479Z,7.15
2019-02-21T12:55:53.709Z,7.18
2019-02-21T12:56:53.697Z,7.24
2019-02-21T12:57:53.645Z,7.29
2019-02-21T12:58:53.625Z,7.34
2019-02-21T12:59:53.845Z,7.34
2019-02-21T13:00:53.788Z,7.37
2019-02-21T13:01:53.699Z,7.3
2019-02-21T13:02:53.629Z,7.34
2019-02-21T13:03:53.645Z,7.29
2019-02-21T13:04:53.704Z,7.33
2019-02-21T13:05:54.482Z,7.28
2019-02-21T13:06:53.736Z,7.29
2019-02-21T13:07:53.916Z,7.21
2019-02-21T13:08:54.104Z,7.24
2019-02-21T13:09:53.896Z,7.22
2019-02-21T13:10:53.642Z,7.19
2019-02-21T13:11:53.679Z,7.24
2019-02-21T13:12:55.472Z,7.29
2019-02-21T13:13:55.465Z,7.28
2019-02-21T13:14:54.124Z,7.25
2019-02-21T13:15:53.707Z,7.22
2019-02-21T13:16:53.922Z,7.27
2019-02-21T13:17:53.659Z,7.27
2019-02-21T13:18:53.575Z,7.29
2019-02-21T13:19:53.882Z,7.29
2019-02-21T13:20:54.093Z,7.33